Cotati, CA (94926)

9:46 AM PDT on October 02, 2014 (GMT -0700)
KCAROHNE6 | Change Station
CLOSE
Current Station
Personal Weather Station
Location: Rohnert Park, CA
Elevation: 108 ft
Nearby Weather Stations
Active Advisory: Heat Advisory

Elev 108 ft 38.34 °N, 122.70 °W | Updated 2 minutes ago

Clear
Clear
66.6 °F
Feels Like 66.6 °F
N
1.0
Wind Variable Wind from SW
Gusts 2.0 mph

Today
High -- | Low -- °F
--% Chance of Precip.
Yesterday
High -- | Low -- °F
Precip. -- in
7:07 AM 6:52 PM
First Quarter, 60% visible
Pressure 30.06 in
Visibility 10.0 miles
Clouds Clear
Dew Point 50 °F
Humidity 55%
Rainfall 0.00 in
Snow Depth 0 in , 4 in , 1 in
UV 2 out of 12
Pollen 3.90 out of 12
Air Quality Not available.
Flu Activity Not available.
METAR KO69 021635Z AUTO 00000KT 10SM CLR 16/06 A3006 RMK AO1

More Conditions Fewer Conditions

Pressure 30.06 in
Visibility 10.0 miles
Clouds Clear
Dew Point 50 °F
Humidity 55%
Rainfall 0.00 in
Snow Depth 0 in , 4 in , 1 in
UV 2 out of 12
Pollen 3.90 out of 12
Air Quality Not available.
Flu Activity Not available.
METAR KO69 021635Z AUTO 00000KT 10SM CLR 16/06 A3006 RMK AO1

More Conditions Fewer Conditions

10-Day Weather Forecast

Almanac

Astronomy

Oct. 02, 2014 Rise Set
Actual Time 7:07 AM PDT 6:52 PM PDT
Civil Twilight 6:41 AM PDT 7:18 PM PDT
Nautical Twilight 6:10 AM PDT 7:48 PM PDT
Astronomical Twilight 5:39 AM PDT 8:19 PM PDT
Moon 2:58 PM PDT 12:34 AM PDT
Length of Visible Light 12h 37m
Length of Day
11h 44m
Tomorrow will be 2m 27s shorter.
First Quarter, 60% of the Moon is Illuminated
Today
First Quarter
Oct 8
Full
Oct 15
Last Quarter
Oct 23
New
Oct 30
First Quarter

Today's Extremes

State Highs State Lows

Community

WunderPhotos

Upload Photos

1,758,294 photos uploaded!

WunderBlogs® & News

Nearby

Air Quality

  Air Quality AQ Index Pollutant
Thursday Moderate
OZONE
Friday Moderate
PM2.5
Saturday Moderate
PM2.5
Sunday Moderate
PM2.5
Monday Moderate
PM2.5

Snow Depth

Station Depth Elevation
Fallen Leaf 0 in 6300 ft
CSS Lab 4 in 6900 ft
Horse Meadow 1 in 8631 ft
Rubicon #2 1 in 7500 ft
Truckee #2 0 in 6400 ft

Earthquake Activity

City Distance Mag. Time & Date
South Dos Palos, California 155 miles 3.0 11:17 AM PDT
2014-10-01
Hayfork, California 130 miles 2.5 11:28 PM PDT
2014-09-30
East Foothills, California 78 miles 2.6 3:34 PM PDT
2014-09-30
South Dos Palos, California 155 miles 2.7 3:08 PM PDT
2014-09-30
Minimum magnitude displayed is 2.5.

Coastal Water Temperatures

Place Temperature
Point Reyes, CA 57.9 °F
Arena Cove, CA 53.1 °F
San Francisco, CA 64.0 °F
Richmond, CA 66.9 °F

Nearby Weather Stations